sensor_id;sensor_type;location;lat;lon;timestamp;temperature;humidity
7016;DHT22;3548;48.402;9.990;2022-07-01T00:00:31;17.00;99.90
7016;DHT22;3548;48.402;9.990;2022-07-01T00:02:57;17.00;99.90
7016;DHT22;3548;48.402;9.990;2022-07-01T00:05:22;17.10;99.90
7016;DHT22;3548;48.402;9.990;2022-07-01T00:07:48;17.10;99.90
7016;DHT22;3548;48.402;9.990;2022-07-01T00:10:15;17.20;99.90
7016;DHT22;3548;48.402;9.990;2022-07-01T00:12:40;17.20;99.90
7016;DHT22;3548;48.402;9.990;2022-07-01T00:15:06;17.20;99.90
7016;DHT22;3548;48.402;9.990;2022-07-01T00:17:33;17.30;99.90
7016;DHT22;3548;48.402;9.990;2022-07-01T00:20:00;17.20;99.90
7016;DHT22;3548;48.402;9.990;2022-07-01T00:22:26;17.30;99.90
7016;DHT22;3548;48.402;9.990;2022-07-01T00:24:53;17.30;99.90
7016;DHT22;3548;48.402;9.990;2022-07-01T00:27:19;17.20;99.90
7016;DHT22;3548;48.402;9.990;2022-07-01T00:29:44;17.20;99.90
7016;DHT22;3548;48.402;9.990;2022-07-01T00:32:10;17.20;99.90
7016;DHT22;3548;48.402;9.990;2022-07-01T00:34:36;17.20;99.90
7016;DHT22;3548;48.402;9.990;2022-07-01T00:37:02;17.20;99.90
7016;DHT22;3548;48.402;9.990;2022-07-01T00:39:27;17.20;99.90
7016;DHT22;3548;48.402;9.990;2022-07-01T00:41:59;17.20;99.90
7016;DHT22;3548;48.402;9.990;2022-07-01T00:44:25;17.20;99.90
7016;DHT22;3548;48.402;9.990;2022-07-01T00:46:51;17.20;99.90
7016;DHT22;3548;48.402;9.990;2022-07-01T00:49:16;17.20;99.90
7016;DHT22;3548;48.402;9.990;2022-07-01T00:51:43;17.20;99.90
7016;DHT22;3548;48.402;9.990;2022-07-01T00:54:09;17.20;99.90
7016;DHT22;3548;48.402;9.990;2022-07-01T00:56:35;17.10;99.90
7016;DHT22;3548;48.402;9.990;2022-07-01T00:59:01;17.10;99.90
7016;DHT22;3548;48.402;9.990;2022-07-01T01:01:26;17.10;99.90
7016;DHT22;3548;48.402;9.990;2022-07-01T01:03:52;17.10;99.90
7016;DHT22;3548;48.402;9.990;2022-07-01T01:06:18;17.10;99.90
7016;DHT22;3548;48.402;9.990;2022-07-01T01:08:44;17.10;99.90
7016;DHT22;3548;48.402;9.990;2022-07-01T01:11:10;17.10;99.90
7016;DHT22;3548;48.402;9.990;2022-07-01T01:13:36;17.10;99.90
7016;DHT22;3548;48.402;9.990;2022-07-01T01:16:02;17.10;99.90
7016;DHT22;3548;48.402;9.990;2022-07-01T01:18:27;17.10;99.90
7016;DHT22;3548;48.402;9.990;2022-07-01T01:20:54;17.10;99.90
7016;DHT22;3548;48.402;9.990;2022-07-01T01:23:19;17.10;99.90
7016;DHT22;3548;48.402;9.990;2022-07-01T01:25:47;17.20;99.90
7016;DHT22;3548;48.402;9.990;2022-07-01T01:28:13;17.20;99.90
7016;DHT22;3548;48.402;9.990;2022-07-01T01:30:38;17.20;99.90
7016;DHT22;3548;48.402;9.990;2022-07-01T01:33:04;17.30;99.90
7016;DHT22;3548;48.402;9.990;2022-07-01T01:35:33;17.30;99.90
7016;DHT22;3548;48.402;9.990;2022-07-01T01:37:58;17.30;99.90
7016;DHT22;3548;48.402;9.990;2022-07-01T01:40:24;17.30;99.90
7016;DHT22;3548;48.402;9.990;2022-07-01T01:42:49;17.30;99.90
7016;DHT22;3548;48.402;9.990;2022-07-01T01:45:15;17.30;99.90
7016;DHT22;3548;48.402;9.990;2022-07-01T01:47:41;17.40;99.90
7016;DHT22;3548;48.402;9.990;2022-07-01T01:50:08;17.40;99.90
7016;DHT22;3548;48.402;9.990;2022-07-01T01:52:34;17.30;99.90
7016;DHT22;3548;48.402;9.990;2022-07-01T01:55:00;17.30;99.90
7016;DHT22;3548;48.402;9.990;2022-07-01T01:57:26;17.30;99.90
7016;DHT22;3548;48.402;9.990;2022-07-01T01:59:52;17.30;99.90
7016;DHT22;3548;48.402;9.990;2022-07-01T02:02:17;17.30;99.90
7016;DHT22;3548;48.402;9.990;2022-07-01T02:04:43;17.30;99.90
7016;DHT22;3548;48.402;9.990;2022-07-01T02:07:09;17.30;99.90
7016;DHT22;3548;48.402;9.990;2022-07-01T02:09:34;17.20;99.90
7016;DHT22;3548;48.402;9.990;2022-07-01T02:12:00;17.20;99.90
7016;DHT22;3548;48.402;9.990;2022-07-01T02:14:25;17.20;99.90
7016;DHT22;3548;48.402;9.990;2022-07-01T02:16:51;17.10;99.90
7016;DHT22;3548;48.402;9.990;2022-07-01T02:19:16;17.10;99.90
7016;DHT22;3548;48.402;9.990;2022-07-01T02:21:42;17.00;99.90
7016;DHT22;3548;48.402;9.990;2022-07-01T02:24:08;16.90;99.90
7016;DHT22;3548;48.402;9.990;2022-07-01T02:26:34;16.90;99.90
7016;DHT22;3548;48.402;9.990;2022-07-01T02:29:01;16.80;99.90
7016;DHT22;3548;48.402;9.990;2022-07-01T02:31:26;16.80;99.90
7016;DHT22;3548;48.402;9.990;2022-07-01T02:33:52;16.70;99.90
7016;DHT22;3548;48.402;9.990;2022-07-01T02:36:17;16.60;99.90
7016;DHT22;3548;48.402;9.990;2022-07-01T02:38:43;16.40;99.90
7016;DHT22;3548;48.402;9.990;2022-07-01T02:41:08;16.30;99.90
7016;DHT22;3548;48.402;9.990;2022-07-01T02:43:35;16.30;99.90
7016;DHT22;3548;48.402;9.990;2022-07-01T02:46:01;16.30;99.90
7016;DHT22;3548;48.402;9.990;2022-07-01T02:48:26;16.30;99.90
7016;DHT22;3548;48.402;9.990;2022-07-01T02:50:52;16.30;99.90
7016;DHT22;3548;48.402;9.990;2022-07-01T02:53:17;16.30;99.90
7016;DHT22;3548;48.402;9.990;2022-07-01T02:55:43;16.20;99.90
7016;DHT22;3548;48.402;9.990;2022-07-01T02:58:08;16.20;99.90
7016;DHT22;3548;48.402;9.990;2022-07-01T03:00:34;16.00;99.90
7016;DHT22;3548;48.402;9.990;2022-07-01T03:02:59;15.90;99.90
7016;DHT22;3548;48.402;9.990;2022-07-01T03:05:25;15.60;99.90
7016;DHT22;3548;48.402;9.990;2022-07-01T03:07:50;15.60;99.90
7016;DHT22;3548;48.402;9.990;2022-07-01T03:10:16;15.40;99.90
7016;DHT22;3548;48.402;9.990;2022-07-01T03:12:42;15.40;99.90
7016;DHT22;3548;48.402;9.990;2022-07-01T03:15:14;15.30;99.90
7016;DHT22;3548;48.402;9.990;2022-07-01T03:17:43;15.30;99.90
7016;DHT22;3548;48.402;9.990;2022-07-01T03:20:13;15.20;99.90
7016;DHT22;3548;48.402;9.990;2022-07-01T03:22:40;15.20;99.90
7016;DHT22;3548;48.402;9.990;2022-07-01T03:25:06;15.10;99.90
7016;DHT22;3548;48.402;9.990;2022-07-01T03:27:33;15.00;99.90
7016;DHT22;3548;48.402;9.990;2022-07-01T03:29:59;14.80;99.90
7016;DHT22;3548;48.402;9.990;2022-07-01T03:32:25;14.60;99.90
7016;DHT22;3548;48.402;9.990;2022-07-01T03:34:52;14.50;99.90
7016;DHT22;3548;48.402;9.990;2022-07-01T03:37:19;14.40;99.90
7016;DHT22;3548;48.402;9.990;2022-07-01T03:39:45;14.30;99.90
7016;DHT22;3548;48.402;9.990;2022-07-01T03:42:11;14.30;99.90
7016;DHT22;3548;48.402;9.990;2022-07-01T03:44:37;14.20;99.90
7016;DHT22;3548;48.402;9.990;2022-07-01T03:47:04;14.20;99.90
7016;DHT22;3548;48.402;9.990;2022-07-01T03:49:34;14.20;99.90
7016;DHT22;3548;48.402;9.990;2022-07-01T03:52:01;14.10;99.90
7016;DHT22;3548;48.402;9.990;2022-07-01T03:54:26;14.00;99.90
7016;DHT22;3548;48.402;9.990;2022-07-01T03:57:04;14.00;99.90
7016;DHT22;3548;48.402;9.990;2022-07-01T03:59:32;13.90;99.90
7016;DHT22;3548;48.402;9.990;2022-07-01T04:01:58;13.90;99.90
7016;DHT22;3548;48.402;9.990;2022-07-01T04:04:25;13.90;99.90
7016;DHT22;3548;48.402;9.990;2022-07-01T04:06:53;13.90;99.90
7016;DHT22;3548;48.402;9.990;2022-07-01T04:09:19;13.80;99.90
7016;DHT22;3548;48.402;9.990;2022-07-01T04:11:45;13.80;99.90
7016;DHT22;3548;48.402;9.990;2022-07-01T04:14:11;13.80;99.90
7016;DHT22;3548;48.402;9.990;2022-07-01T04:16:37;13.90;99.90
7016;DHT22;3548;48.402;9.990;2022-07-01T04:19:03;13.90;99.90
7016;DHT22;3548;48.402;9.990;2022-07-01T04:21:29;14.00;99.90
7016;DHT22;3548;48.402;9.990;2022-07-01T04:24:14;14.00;99.90
7016;DHT22;3548;48.402;9.990;2022-07-01T04:26:40;14.00;99.90
7016;DHT22;3548;48.402;9.990;2022-07-01T04:29:06;13.00;99.90
7016;DHT22;3548;48.402;9.990;2022-07-01T04:31:36;13.90;99.90
7016;DHT22;3548;48.402;9.990;2022-07-01T04:34:02;13.90;99.90
7016;DHT22;3548;48.402;9.990;2022-07-01T04:36:28;14.00;99.90
7016;DHT22;3548;48.402;9.990;2022-07-01T04:38:53;14.00;99.90
7016;DHT22;3548;48.402;9.990;2022-07-01T04:41:19;14.00;99.90
7016;DHT22;3548;48.402;9.990;2022-07-01T04:44:03;14.00;99.90
7016;DHT22;3548;48.402;9.990;2022-07-01T04:46:29;14.00;99.90
7016;DHT22;3548;48.402;9.990;2022-07-01T04:48:54;14.00;99.90
7016;DHT22;3548;48.402;9.990;2022-07-01T04:51:20;14.00;99.90
7016;DHT22;3548;48.402;9.990;2022-07-01T04:53:46;14.00;99.90
7016;DHT22;3548;48.402;9.990;2022-07-01T04:56:12;14.00;99.90
7016;DHT22;3548;48.402;9.990;2022-07-01T04:58:38;14.00;99.90
7016;DHT22;3548;48.402;9.990;2022-07-01T05:01:03;14.10;99.90
7016;DHT22;3548;48.402;9.990;2022-07-01T05:03:29;14.10;99.90
7016;DHT22;3548;48.402;9.990;2022-07-01T05:05:54;14.20;99.90
7016;DHT22;3548;48.402;9.990;2022-07-01T05:08:20;14.20;99.90
7016;DHT22;3548;48.402;9.990;2022-07-01T05:10:45;14.20;99.90
7016;DHT22;3548;48.402;9.990;2022-07-01T05:13:11;14.10;99.90
7016;DHT22;3548;48.402;9.990;2022-07-01T05:15:37;14.20;99.90
7016;DHT22;3548;48.402;9.990;2022-07-01T05:18:03;14.20;99.90
7016;DHT22;3548;48.402;9.990;2022-07-01T05:20:47;14.20;99.90
7016;DHT22;3548;48.402;9.990;2022-07-01T05:23:31;14.20;99.90
7016;DHT22;3548;48.402;9.990;2022-07-01T05:25:57;14.10;99.90
7016;DHT22;3548;48.402;9.990;2022-07-01T05:28:22;14.20;99.90
7016;DHT22;3548;48.402;9.990;2022-07-01T05:30:48;14.20;99.90
7016;DHT22;3548;48.402;9.990;2022-07-01T05:33:14;14.10;99.90
7016;DHT22;3548;48.402;9.990;2022-07-01T05:35:39;14.10;99.90
7016;DHT22;3548;48.402;9.990;2022-07-01T05:38:05;14.00;99.90
7016;DHT22;3548;48.402;9.990;2022-07-01T05:40:30;14.00;99.90
7016;DHT22;3548;48.402;9.990;2022-07-01T05:42:56;14.00;99.90
7016;DHT22;3548;48.402;9.990;2022-07-01T05:45:21;14.00;99.90
7016;DHT22;3548;48.402;9.990;2022-07-01T05:47:47;14.00;99.90
7016;DHT22;3548;48.402;9.990;2022-07-01T05:50:12;14.00;99.90
7016;DHT22;3548;48.402;9.990;2022-07-01T05:52:38;14.10;99.90
7016;DHT22;3548;48.402;9.990;2022-07-01T05:55:04;14.10;99.90
7016;DHT22;3548;48.402;9.990;2022-07-01T05:57:29;14.10;99.90
7016;DHT22;3548;48.402;9.990;2022-07-01T05:59:55;14.10;99.90
7016;DHT22;3548;48.402;9.990;2022-07-01T06:02:20;14.20;99.90
7016;DHT22;3548;48.402;9.990;2022-07-01T06:04:46;14.10;99.90
7016;DHT22;3548;48.402;9.990;2022-07-01T06:07:11;14.00;99.90
7016;DHT22;3548;48.402;9.990;2022-07-01T06:09:37;14.10;99.90
7016;DHT22;3548;48.402;9.990;2022-07-01T06:12:04;14.10;99.90
7016;DHT22;3548;48.402;9.990;2022-07-01T06:14:30;14.10;99.90
7016;DHT22;3548;48.402;9.990;2022-07-01T06:16:55;14.10;99.90
7016;DHT22;3548;48.402;9.990;2022-07-01T06:19:21;14.20;99.90
7016;DHT22;3548;48.402;9.990;2022-07-01T06:21:47;14.20;99.90
7016;DHT22;3548;48.402;9.990;2022-07-01T06:24:12;14.20;99.90
7016;DHT22;3548;48.402;9.990;2022-07-01T06:26:38;14.20;99.90
7016;DHT22;3548;48.402;9.990;2022-07-01T06:29:04;14.20;99.90
7016;DHT22;3548;48.402;9.990;2022-07-01T06:31:30;14.20;99.90
7016;DHT22;3548;48.402;9.990;2022-07-01T06:33:55;14.20;99.90
7016;DHT22;3548;48.402;9.990;2022-07-01T06:36:21;14.30;99.90
7016;DHT22;3548;48.402;9.990;2022-07-01T06:38:47;14.40;99.90
7016;DHT22;3548;48.402;9.990;2022-07-01T06:41:12;14.40;99.90
7016;DHT22;3548;48.402;9.990;2022-07-01T06:44:00;14.50;99.90
7016;DHT22;3548;48.402;9.990;2022-07-01T06:46:27;14.50;99.90
7016;DHT22;3548;48.402;9.990;2022-07-01T06:48:54;14.60;99.90
7016;DHT22;3548;48.402;9.990;2022-07-01T06:51:21;14.60;99.90
7016;DHT22;3548;48.402;9.990;2022-07-01T06:53:46;14.50;99.90
7016;DHT22;3548;48.402;9.990;2022-07-01T06:56:13;14.50;99.90
7016;DHT22;3548;48.402;9.990;2022-07-01T06:58:39;14.50;99.90
7016;DHT22;3548;48.402;9.990;2022-07-01T07:01:05;14.50;99.90
7016;DHT22;3548;48.402;9.990;2022-07-01T07:03:31;14.50;99.90
7016;DHT22;3548;48.402;9.990;2022-07-01T07:05:59;14.50;99.90
7016;DHT22;3548;48.402;9.990;2022-07-01T07:08:28;14.50;99.90
7016;DHT22;3548;48.402;9.990;2022-07-01T07:10:55;14.50;99.90
7016;DHT22;3548;48.402;9.990;2022-07-01T07:13:20;14.60;99.90
7016;DHT22;3548;48.402;9.990;2022-07-01T07:15:46;14.60;99.90
7016;DHT22;3548;48.402;9.990;2022-07-01T07:18:12;14.70;99.90
7016;DHT22;3548;48.402;9.990;2022-07-01T07:20:37;14.70;99.90
7016;DHT22;3548;48.402;9.990;2022-07-01T07:23:04;14.70;99.90
7016;DHT22;3548;48.402;9.990;2022-07-01T07:25:30;14.70;99.90
7016;DHT22;3548;48.402;9.990;2022-07-01T07:27:56;14.80;99.90
7016;DHT22;3548;48.402;9.990;2022-07-01T07:30:22;14.90;99.90
7016;DHT22;3548;48.402;9.990;2022-07-01T07:32:48;15.00;99.90
7016;DHT22;3548;48.402;9.990;2022-07-01T07:35:14;15.00;99.90
7016;DHT22;3548;48.402;9.990;2022-07-01T07:37:40;15.10;99.90
7016;DHT22;3548;48.402;9.990;2022-07-01T07:40:07;15.10;99.90
7016;DHT22;3548;48.402;9.990;2022-07-01T07:42:35;15.20;99.90
7016;DHT22;3548;48.402;9.990;2022-07-01T07:45:02;15.30;99.90
7016;DHT22;3548;48.402;9.990;2022-07-01T07:47:28;15.20;99.90
7016;DHT22;3548;48.402;9.990;2022-07-01T07:49:53;15.20;99.90
7016;DHT22;3548;48.402;9.990;2022-07-01T07:52:19;15.10;99.90
7016;DHT22;3548;48.402;9.990;2022-07-01T07:54:45;15.10;99.90
7016;DHT22;3548;48.402;9.990;2022-07-01T07:57:10;15.10;99.90
7016;DHT22;3548;48.402;9.990;2022-07-01T07:59:36;15.10;99.90
7016;DHT22;3548;48.402;9.990;2022-07-01T08:02:01;15.10;99.90
7016;DHT22;3548;48.402;9.990;2022-07-01T08:04:27;15.10;99.90
7016;DHT22;3548;48.402;9.990;2022-07-01T08:06:53;14.70;99.90
7016;DHT22;3548;48.402;9.990;2022-07-01T08:09:18;14.80;99.90
7016;DHT22;3548;48.402;9.990;2022-07-01T08:11:44;14.70;99.90
7016;DHT22;3548;48.402;9.990;2022-07-01T08:14:10;14.60;99.90
7016;DHT22;3548;48.402;9.990;2022-07-01T08:16:36;14.50;99.90
7016;DHT22;3548;48.402;9.990;2022-07-01T08:19:02;14.40;99.90
7016;DHT22;3548;48.402;9.990;2022-07-01T08:21:28;14.50;99.90
7016;DHT22;3548;48.402;9.990;2022-07-01T08:23:54;14.50;99.90
7016;DHT22;3548;48.402;9.990;2022-07-01T08:26:19;14.50;99.90
7016;DHT22;3548;48.402;9.990;2022-07-01T08:28:45;14.60;99.90
7016;DHT22;3548;48.402;9.990;2022-07-01T08:31:11;14.60;99.90
7016;DHT22;3548;48.402;9.990;2022-07-01T08:33:37;14.70;99.90
7016;DHT22;3548;48.402;9.990;2022-07-01T08:36:06;14.70;99.90
7016;DHT22;3548;48.402;9.990;2022-07-01T08:38:33;14.70;99.90
7016;DHT22;3548;48.402;9.990;2022-07-01T08:40:59;14.60;99.90
7016;DHT22;3548;48.402;9.990;2022-07-01T08:43:26;14.50;99.90
7016;DHT22;3548;48.402;9.990;2022-07-01T08:45:52;14.50;99.90
7016;DHT22;3548;48.402;9.990;2022-07-01T08:48:18;14.60;99.90
7016;DHT22;3548;48.402;9.990;2022-07-01T08:50:44;14.60;99.90
7016;DHT22;3548;48.402;9.990;2022-07-01T08:53:11;14.50;99.90
7016;DHT22;3548;48.402;9.990;2022-07-01T08:55:37;14.40;99.90
7016;DHT22;3548;48.402;9.990;2022-07-01T08:58:23;14.40;99.90
7016;DHT22;3548;48.402;9.990;2022-07-01T09:00:49;14.40;99.90
7016;DHT22;3548;48.402;9.990;2022-07-01T09:03:15;14.50;99.90
7016;DHT22;3548;48.402;9.990;2022-07-01T09:05:49;14.60;99.90
7016;DHT22;3548;48.402;9.990;2022-07-01T09:08:15;14.70;99.90
7016;DHT22;3548;48.402;9.990;2022-07-01T09:10:41;14.70;99.90
7016;DHT22;3548;48.402;9.990;2022-07-01T09:13:08;14.70;99.90
7016;DHT22;3548;48.402;9.990;2022-07-01T09:15:35;14.80;99.90
7016;DHT22;3548;48.402;9.990;2022-07-01T09:18:12;14.80;99.90
7016;DHT22;3548;48.402;9.990;2022-07-01T09:20:44;14.80;99.90
7016;DHT22;3548;48.402;9.990;2022-07-01T09:23:11;14.70;99.90
7016;DHT22;3548;48.402;9.990;2022-07-01T09:25:40;14.70;99.90
7016;DHT22;3548;48.402;9.990;2022-07-01T09:28:20;14.70;99.90
7016;DHT22;3548;48.402;9.990;2022-07-01T09:30:51;14.70;99.90
7016;DHT22;3548;48.402;9.990;2022-07-01T09:33:22;14.70;99.90
7016;DHT22;3548;48.402;9.990;2022-07-01T09:35:52;14.70;99.90
7016;DHT22;3548;48.402;9.990;2022-07-01T09:38:20;14.70;99.90
7016;DHT22;3548;48.402;9.990;2022-07-01T09:40:47;14.60;99.90
7016;DHT22;3548;48.402;9.990;2022-07-01T09:46:12;14.60;99.90
7016;DHT22;3548;48.402;9.990;2022-07-01T09:51:06;14.60;99.90
7016;DHT22;3548;48.402;9.990;2022-07-01T09:53:32;14.50;99.90
7016;DHT22;3548;48.402;9.990;2022-07-01T09:55:58;14.50;99.90
7016;DHT22;3548;48.402;9.990;2022-07-01T09:58:24;14.50;99.90
7016;DHT22;3548;48.402;9.990;2022-07-01T10:00:52;14.50;99.90
7016;DHT22;3548;48.402;9.990;2022-07-01T10:03:18;14.60;99.90
7016;DHT22;3548;48.402;9.990;2022-07-01T10:05:51;14.60;99.90
7016;DHT22;3548;48.402;9.990;2022-07-01T10:14:07;14.60;99.90
7016;DHT22;3548;48.402;9.990;2022-07-01T10:16:34;14.60;99.90
7016;DHT22;3548;48.402;9.990;2022-07-01T10:21:55;14.70;99.90
7016;DHT22;3548;48.402;9.990;2022-07-01T10:24:22;14.60;99.90
7016;DHT22;3548;48.402;9.990;2022-07-01T10:26:48;14.50;99.90
7016;DHT22;3548;48.402;9.990;2022-07-01T10:29:34;14.50;99.90
7016;DHT22;3548;48.402;9.990;2022-07-01T10:32:01;14.60;99.90
7016;DHT22;3548;48.402;9.990;2022-07-01T10:34:34;14.60;99.90
7016;DHT22;3548;48.402;9.990;2022-07-01T10:37:03;14.60;99.90
7016;DHT22;3548;48.402;9.990;2022-07-01T10:39:30;14.60;99.90
7016;DHT22;3548;48.402;9.990;2022-07-01T10:41:57;14.60;99.90
7016;DHT22;3548;48.402;9.990;2022-07-01T10:44:24;14.50;99.90
7016;DHT22;3548;48.402;9.990;2022-07-01T10:47:01;14.50;99.90
7016;DHT22;3548;48.402;9.990;2022-07-01T10:49:51;14.50;99.90
7016;DHT22;3548;48.402;9.990;2022-07-01T10:52:17;14.40;99.90
7016;DHT22;3548;48.402;9.990;2022-07-01T10:54:44;14.40;99.90
7016;DHT22;3548;48.402;9.990;2022-07-01T10:59:54;14.40;99.90
7016;DHT22;3548;48.402;9.990;2022-07-01T11:02:25;14.40;99.90
7016;DHT22;3548;48.402;9.990;2022-07-01T11:04:53;14.40;99.90
7016;DHT22;3548;48.402;9.990;2022-07-01T11:07:19;14.50;99.90
7016;DHT22;3548;48.402;9.990;2022-07-01T11:09:45;14.60;99.90
7016;DHT22;3548;48.402;9.990;2022-07-01T11:12:11;14.60;99.90
7016;DHT22;3548;48.402;9.990;2022-07-01T11:14:41;14.60;99.90
7016;DHT22;3548;48.402;9.990;2022-07-01T11:17:08;14.60;99.90
7016;DHT22;3548;48.402;9.990;2022-07-01T11:19:33;14.60;99.90
7016;DHT22;3548;48.402;9.990;2022-07-01T11:21:59;14.60;99.90
7016;DHT22;3548;48.402;9.990;2022-07-01T11:24:25;14.60;99.90
7016;DHT22;3548;48.402;9.990;2022-07-01T11:26:50;14.50;99.90
7016;DHT22;3548;48.402;9.990;2022-07-01T11:29:28;14.50;99.90
7016;DHT22;3548;48.402;9.990;2022-07-01T11:31:54;14.60;99.90
7016;DHT22;3548;48.402;9.990;2022-07-01T11:34:20;14.60;99.90
7016;DHT22;3548;48.402;9.990;2022-07-01T11:36:47;14.50;99.90
7016;DHT22;3548;48.402;9.990;2022-07-01T11:39:34;14.70;99.90
7016;DHT22;3548;48.402;9.990;2022-07-01T11:42:06;14.60;99.90
7016;DHT22;3548;48.402;9.990;2022-07-01T11:44:34;14.60;99.90
7016;DHT22;3548;48.402;9.990;2022-07-01T11:47:09;14.60;99.90
7016;DHT22;3548;48.402;9.990;2022-07-01T11:49:44;14.60;99.90
7016;DHT22;3548;48.402;9.990;2022-07-01T11:52:10;14.60;99.90
7016;DHT22;3548;48.402;9.990;2022-07-01T11:54:38;14.70;99.90
7016;DHT22;3548;48.402;9.990;2022-07-01T11:57:12;14.70;99.90
7016;DHT22;3548;48.402;9.990;2022-07-01T11:59:38;14.70;99.90
7016;DHT22;3548;48.402;9.990;2022-07-01T12:02:05;14.80;99.90
7016;DHT22;3548;48.402;9.990;2022-07-01T12:04:31;14.90;99.90
7016;DHT22;3548;48.402;9.990;2022-07-01T12:06:58;14.90;99.90
7016;DHT22;3548;48.402;9.990;2022-07-01T12:09:24;15.00;99.90
7016;DHT22;3548;48.402;9.990;2022-07-01T12:11:51;15.10;99.90
7016;DHT22;3548;48.402;9.990;2022-07-01T12:14:28;15.00;99.90
7016;DHT22;3548;48.402;9.990;2022-07-01T12:16:57;15.10;99.90
7016;DHT22;3548;48.402;9.990;2022-07-01T12:19:44;15.10;99.90
7016;DHT22;3548;48.402;9.990;2022-07-01T12:22:13;15.10;99.90
7016;DHT22;3548;48.402;9.990;2022-07-01T12:24:41;15.10;99.90
7016;DHT22;3548;48.402;9.990;2022-07-01T12:27:07;15.20;99.90
7016;DHT22;3548;48.402;9.990;2022-07-01T12:32:13;15.40;99.90
7016;DHT22;3548;48.402;9.990;2022-07-01T12:34:48;15.40;99.90
7016;DHT22;3548;48.402;9.990;2022-07-01T12:37:20;15.50;99.90
7016;DHT22;3548;48.402;9.990;2022-07-01T12:39:52;15.60;99.90
7016;DHT22;3548;48.402;9.990;2022-07-01T12:42:25;15.60;99.90
7016;DHT22;3548;48.402;9.990;2022-07-01T12:44:52;15.80;99.90
7016;DHT22;3548;48.402;9.990;2022-07-01T12:47:19;15.80;99.90
7016;DHT22;3548;48.402;9.990;2022-07-01T12:49:45;15.80;99.90
7016;DHT22;3548;48.402;9.990;2022-07-01T12:52:27;15.90;99.90
7016;DHT22;3548;48.402;9.990;2022-07-01T12:54:54;16.00;99.90
7016;DHT22;3548;48.402;9.990;2022-07-01T12:57:31;16.00;99.90
7016;DHT22;3548;48.402;9.990;2022-07-01T12:59:57;16.00;99.90
7016;DHT22;3548;48.402;9.990;2022-07-01T13:02:23;16.10;99.90
7016;DHT22;3548;48.402;9.990;2022-07-01T13:04:49;16.10;99.90
7016;DHT22;3548;48.402;9.990;2022-07-01T13:07:15;16.20;99.90
7016;DHT22;3548;48.402;9.990;2022-07-01T13:09:40;16.20;99.90
7016;DHT22;3548;48.402;9.990;2022-07-01T13:12:06;16.30;99.90
7016;DHT22;3548;48.402;9.990;2022-07-01T13:14:32;16.30;99.90
7016;DHT22;3548;48.402;9.990;2022-07-01T13:16:58;16.30;99.90
7016;DHT22;3548;48.402;9.990;2022-07-01T13:19:23;16.30;99.90
7016;DHT22;3548;48.402;9.990;2022-07-01T13:21:49;16.20;99.90
7016;DHT22;3548;48.402;9.990;2022-07-01T13:24:14;16.00;99.90
7016;DHT22;3548;48.402;9.990;2022-07-01T13:26:40;16.00;99.90
7016;DHT22;3548;48.402;9.990;2022-07-01T13:29:06;16.00;99.90
7016;DHT22;3548;48.402;9.990;2022-07-01T13:31:32;15.90;99.90
7016;DHT22;3548;48.402;9.990;2022-07-01T13:33:58;15.90;99.90
7016;DHT22;3548;48.402;9.990;2022-07-01T13:36:23;16.00;99.90
7016;DHT22;3548;48.402;9.990;2022-07-01T13:38:49;16.00;99.90
7016;DHT22;3548;48.402;9.990;2022-07-01T13:41:16;16.10;99.90
7016;DHT22;3548;48.402;9.990;2022-07-01T13:43:41;16.20;99.90
7016;DHT22;3548;48.402;9.990;2022-07-01T13:46:07;16.20;99.90
7016;DHT22;3548;48.402;9.990;2022-07-01T13:48:32;16.40;99.90
7016;DHT22;3548;48.402;9.990;2022-07-01T13:50:58;16.60;99.90
7016;DHT22;3548;48.402;9.990;2022-07-01T13:53:24;16.90;99.90
7016;DHT22;3548;48.402;9.990;2022-07-01T13:55:49;17.20;99.90
7016;DHT22;3548;48.402;9.990;2022-07-01T13:58:15;17.60;99.90
7016;DHT22;3548;48.402;9.990;2022-07-01T14:00:41;18.00;99.90
7016;DHT22;3548;48.402;9.990;2022-07-01T14:03:07;18.30;99.90
7016;DHT22;3548;48.402;9.990;2022-07-01T14:05:36;18.60;99.90
7016;DHT22;3548;48.402;9.990;2022-07-01T14:08:01;18.80;99.90
7016;DHT22;3548;48.402;9.990;2022-07-01T14:10:27;18.70;99.90
7016;DHT22;3548;48.402;9.990;2022-07-01T14:12:52;18.40;99.90
7016;DHT22;3548;48.402;9.990;2022-07-01T14:15:18;18.10;99.90
7016;DHT22;3548;48.402;9.990;2022-07-01T14:17:44;17.70;99.90
7016;DHT22;3548;48.402;9.990;2022-07-01T14:20:11;17.50;99.90
7016;DHT22;3548;48.402;9.990;2022-07-01T14:22:36;17.20;99.90
7016;DHT22;3548;48.402;9.990;2022-07-01T14:25:02;17.00;99.90
7016;DHT22;3548;48.402;9.990;2022-07-01T14:27:28;16.90;99.90
7016;DHT22;3548;48.402;9.990;2022-07-01T14:29:53;16.90;99.90
7016;DHT22;3548;48.402;9.990;2022-07-01T14:32:19;16.90;99.90
7016;DHT22;3548;48.402;9.990;2022-07-01T14:34:50;17.00;99.90
7016;DHT22;3548;48.402;9.990;2022-07-01T14:37:15;17.00;99.90
7016;DHT22;3548;48.402;9.990;2022-07-01T14:39:41;17.20;99.90
7016;DHT22;3548;48.402;9.990;2022-07-01T14:42:06;17.30;99.90
7016;DHT22;3548;48.402;9.990;2022-07-01T14:44:32;17.30;99.90
7016;DHT22;3548;48.402;9.990;2022-07-01T14:46:57;17.10;99.90
7016;DHT22;3548;48.402;9.990;2022-07-01T14:49:23;17.00;99.90
7016;DHT22;3548;48.402;9.990;2022-07-01T14:51:50;17.10;99.90
7016;DHT22;3548;48.402;9.990;2022-07-01T14:54:15;17.00;99.90
7016;DHT22;3548;48.402;9.990;2022-07-01T14:56:41;17.10;99.90
7016;DHT22;3548;48.402;9.990;2022-07-01T14:59:06;17.20;99.90
7016;DHT22;3548;48.402;9.990;2022-07-01T15:01:32;17.40;99.90
7016;DHT22;3548;48.402;9.990;2022-07-01T15:03:59;17.40;99.90
7016;DHT22;3548;48.402;9.990;2022-07-01T15:06:25;17.60;99.90
7016;DHT22;3548;48.402;9.990;2022-07-01T15:08:50;17.80;99.90
7016;DHT22;3548;48.402;9.990;2022-07-01T15:11:16;18.00;99.90
7016;DHT22;3548;48.402;9.990;2022-07-01T15:13:41;18.00;99.90
7016;DHT22;3548;48.402;9.990;2022-07-01T15:16:07;18.00;99.90
7016;DHT22;3548;48.402;9.990;2022-07-01T15:18:32;17.90;99.90
7016;DHT22;3548;48.402;9.990;2022-07-01T15:20:59;18.10;99.90
7016;DHT22;3548;48.402;9.990;2022-07-01T15:23:25;18.00;99.90
7016;DHT22;3548;48.402;9.990;2022-07-01T15:25:51;18.50;99.90
7016;DHT22;3548;48.402;9.990;2022-07-01T15:28:17;18.60;99.90
7016;DHT22;3548;48.402;9.990;2022-07-01T15:30:42;18.60;99.90
7016;DHT22;3548;48.402;9.990;2022-07-01T15:33:08;18.60;99.90
7016;DHT22;3548;48.402;9.990;2022-07-01T15:35:34;18.50;99.90
7016;DHT22;3548;48.402;9.990;2022-07-01T15:37:59;18.50;99.90
7016;DHT22;3548;48.402;9.990;2022-07-01T15:40:25;18.70;99.90
7016;DHT22;3548;48.402;9.990;2022-07-01T15:42:51;18.60;99.90
7016;DHT22;3548;48.402;9.990;2022-07-01T15:45:16;18.50;99.90
7016;DHT22;3548;48.402;9.990;2022-07-01T15:47:42;18.60;99.90
7016;DHT22;3548;48.402;9.990;2022-07-01T15:50:27;18.70;99.90
7016;DHT22;3548;48.402;9.990;2022-07-01T15:52:52;19.00;99.90
7016;DHT22;3548;48.402;9.990;2022-07-01T15:55:18;19.20;99.90
7016;DHT22;3548;48.402;9.990;2022-07-01T15:57:45;19.40;99.90
7016;DHT22;3548;48.402;9.990;2022-07-01T16:00:11;19.60;99.90
7016;DHT22;3548;48.402;9.990;2022-07-01T16:02:39;19.80;99.90
7016;DHT22;3548;48.402;9.990;2022-07-01T16:05:05;20.10;99.90
7016;DHT22;3548;48.402;9.990;2022-07-01T16:07:33;20.30;99.90
7016;DHT22;3548;48.402;9.990;2022-07-01T16:12:31;20.60;99.90
7016;DHT22;3548;48.402;9.990;2022-07-01T16:15:02;20.60;99.90
7016;DHT22;3548;48.402;9.990;2022-07-01T16:17:30;20.50;99.90
7016;DHT22;3548;48.402;9.990;2022-07-01T16:19:58;20.60;99.90
7016;DHT22;3548;48.402;9.990;2022-07-01T16:22:26;20.60;99.90